This is the latest recevied weather packets stored in our database for station/object DC1MPP-9. If no packets are shown the sender has not sent any weather packets the latest 10 day(s).
| Time | Temp. | Humidity | Pressure | Rain* | Wind** | Luminosity | Snow |
|---|---|---|---|---|---|---|---|
| 1777616528 | 10.56° C | 39% | 969 hPa | - | - | - | - |
| 1777616287 | 10.56° C | 40% | 969 hPa | - | - | - | - |
| 1777616046 | 10.56° C | 44% | 969 hPa | - | - | - | - |
| 1777615805 | 10° C | 42% | 969 hPa | - | - | - | - |
| 1777615564 | 10° C | 43% | 969 hPa | - | - | - | - |
| 1777615323 | 10° C | 45% | 969 hPa | - | - | - | - |
| 1777615082 | 8.89° C | 43% | 969 hPa | - | - | - | - |
| 1777614841 | 8.89° C | 43% | 969 hPa | - | - | - | - |
| 1777614600 | 8.89° C | 44% | 969 hPa | - | - | - | - |
| 1777614359 | 8.89° C | 44% | 969 hPa | - | - | - | - |
| 1777614118 | 8.33° C | 45% | 969 hPa | - | - | - | - |
| 1777613877 | 8.33° C | 49% | 969 hPa | - | - | - | - |
| 1777613636 | 7.78° C | 49% | 969 hPa | - | - | - | - |
| 1777613395 | 7.22° C | 47% | 969 hPa | - | - | - | - |
| 1777613154 | 7.22° C | 51% | 969 hPa | - | - | - | - |
| 1777612913 | 6.67° C | 53% | 969 hPa | - | - | - | - |
| 1777612672 | 6.11° C | 64% | 969 hPa | - | - | - | - |
| 1777612431 | 6.11° C | 67% | 969 hPa | - | - | - | - |
| 1777612189 | 6.11° C | 72% | 969 hPa | - | - | - | - |
| 1777611949 | 5.56° C | 71% | 969 hPa | - | - | - | - |
| 1777611707 | 5.56° C | 70% | 969 hPa | - | - | - | - |
| 1777611466 | 6.67° C | 65% | 969 hPa | - | - | - | - |
| 1777611225 | 8.33° C | 60% | 969 hPa | - | - | - | - |
| 1777610984 | 6.11° C | 68% | 969 hPa | - | - | - | - |
| 1777610743 | 3.89° C | 80% | 969 hPa | - | - | - | - |
* Rain since midnight (hover to see other rain measurements)
** Current wind speed in m/s (hover to see current wind gust speed)